createdAt,value
2017-11-13T00:01:39.165Z,60.60
2017-11-13T00:04:12.796Z,60.40
2017-11-13T00:06:46.288Z,60.20
2017-11-13T00:09:19.834Z,60.00
2017-11-13T00:11:54.207Z,60.10
2017-11-13T00:14:28.554Z,60.10
2017-11-13T00:17:02.219Z,60.00
2017-11-13T00:19:35.836Z,59.90
2017-11-13T00:22:10.111Z,59.70
2017-11-13T00:24:43.856Z,59.70
2017-11-13T00:27:17.368Z,59.80
2017-11-13T00:29:51.044Z,60.00
2017-11-13T00:32:24.571Z,60.00
2017-11-13T00:34:58.251Z,60.10
2017-11-13T00:37:31.717Z,60.00
2017-11-13T00:40:05.212Z,60.10
2017-11-13T00:42:38.952Z,59.90
2017-11-13T00:45:12.765Z,59.80
2017-11-13T00:47:46.376Z,60.30
2017-11-13T00:50:19.940Z,59.80
2017-11-13T00:52:54.303Z,59.80
2017-11-13T00:55:27.985Z,59.80
2017-11-13T00:58:01.588Z,60.00
2017-11-13T01:00:35.036Z,59.90
2017-11-13T01:03:09.371Z,60.20
2017-11-13T01:05:43.099Z,60.20
2017-11-13T01:08:17.528Z,60.20
2017-11-13T01:10:52.008Z,60.40
2017-11-13T01:13:25.861Z,60.40
2017-11-13T01:15:59.476Z,60.30
2017-11-13T01:18:33.061Z,60.00
2017-11-13T01:21:06.658Z,59.90
2017-11-13T01:23:40.494Z,60.20
2017-11-13T01:26:14.168Z,60.30
2017-11-13T01:28:47.768Z,60.10
2017-11-13T01:31:21.360Z,60.00
2017-11-13T01:33:55.784Z,60.30
2017-11-13T01:36:29.488Z,60.30
2017-11-13T01:39:03.092Z,60.40
2017-11-13T01:41:36.797Z,60.30
2017-11-13T01:44:10.447Z,60.10
2017-11-13T01:46:44.304Z,60.30
2017-11-13T01:49:17.909Z,60.40
2017-11-13T01:51:51.447Z,60.20
2017-11-13T01:54:25.195Z,60.30
2017-11-13T01:56:58.708Z,60.00
2017-11-13T01:59:32.403Z,60.10
2017-11-13T02:02:06.012Z,59.90
2017-11-13T02:04:39.507Z,59.80
2017-11-13T02:07:13.007Z,59.80
2017-11-13T02:09:46.704Z,60.10
2017-11-13T02:12:20.312Z,60.10
2017-11-13T02:14:53.976Z,60.30
2017-11-13T02:17:27.464Z,60.50
2017-11-13T02:20:01.011Z,60.60
2017-11-13T02:22:34.691Z,60.70
2017-11-13T02:25:08.268Z,60.60
2017-11-13T02:27:41.807Z,60.70
2017-11-13T02:30:15.416Z,61.00
2017-11-13T02:32:49.691Z,61.20
2017-11-13T02:35:23.300Z,61.20
2017-11-13T02:37:57.035Z,61.00
2017-11-13T02:40:30.635Z,61.10
2017-11-13T02:43:04.120Z,61.10
2017-11-13T02:45:37.697Z,61.00
2017-11-13T02:48:11.232Z,61.00
2017-11-13T02:50:44.895Z,61.00
2017-11-13T02:53:18.384Z,61.20
2017-11-13T02:55:52.064Z,61.30
2017-11-13T02:58:25.720Z,61.20
2017-11-13T03:01:00.240Z,61.20
2017-11-13T03:03:33.691Z,61.20
2017-11-13T03:06:07.473Z,61.50
2017-11-13T03:08:41.681Z,61.70
2017-11-13T03:11:15.484Z,61.60
2017-11-13T03:13:49.032Z,61.80
2017-11-13T03:16:22.787Z,61.90
2017-11-13T03:18:56.372Z,61.90
2017-11-13T03:21:30.905Z,61.80
2017-11-13T03:24:05.294Z,61.80
2017-11-13T03:26:38.931Z,61.80
2017-11-13T03:29:12.528Z,62.00
2017-11-13T03:31:46.135Z,61.80
2017-11-13T03:34:19.732Z,61.80
2017-11-13T03:36:53.408Z,61.90
2017-11-13T03:39:26.891Z,62.10
2017-11-13T03:42:00.650Z,62.00
2017-11-13T03:44:34.335Z,61.90
2017-11-13T03:47:07.835Z,61.90
2017-11-13T03:49:41.540Z,62.00
2017-11-13T03:52:15.855Z,62.60
2017-11-13T03:54:49.663Z,61.90
2017-11-13T03:57:23.982Z,61.90
2017-11-13T03:59:57.542Z,62.00
2017-11-13T04:02:32.083Z,61.90
2017-11-13T04:05:05.714Z,61.90
2017-11-13T04:07:40.131Z,62.00
2017-11-13T04:10:13.624Z,62.00
2017-11-13T04:12:47.227Z,61.80
2017-11-13T04:15:20.663Z,62.00
2017-11-13T04:17:55.144Z,61.40
2017-11-13T04:20:28.647Z,61.70
2017-11-13T04:23:02.095Z,61.50
2017-11-13T04:25:35.674Z,61.70
2017-11-13T04:28:10.164Z,61.90
2017-11-13T04:30:43.711Z,61.90
2017-11-13T04:33:17.508Z,61.60
2017-11-13T04:35:50.943Z,61.50
2017-11-13T04:38:25.283Z,61.40
2017-11-13T04:40:59.267Z,61.30
2017-11-13T04:43:32.848Z,61.50
2017-11-13T04:46:06.492Z,61.30
2017-11-13T04:48:40.091Z,61.10
2017-11-13T04:51:13.691Z,61.30
2017-11-13T04:53:47.344Z,61.10
2017-11-13T04:56:20.907Z,61.20
2017-11-13T04:58:54.397Z,61.20
2017-11-13T05:01:28.107Z,61.30
2017-11-13T05:04:01.919Z,61.20
2017-11-13T05:06:35.504Z,61.20
2017-11-13T05:09:09.104Z,62.00
2017-11-13T05:11:42.703Z,61.40
2017-11-13T05:14:16.263Z,61.10
2017-11-13T05:16:49.821Z,61.10
2017-11-13T05:19:23.472Z,61.00
2017-11-13T05:21:57.011Z,60.90
2017-11-13T05:24:30.579Z,60.80
2017-11-13T05:27:04.058Z,61.10
2017-11-13T05:29:37.660Z,61.40
2017-11-13T05:32:11.377Z,61.30
2017-11-13T05:34:45.016Z,61.50
2017-11-13T05:37:18.547Z,61.30
2017-11-13T05:39:52.219Z,61.30
2017-11-13T05:42:25.716Z,61.30
2017-11-13T05:44:59.355Z,61.20
2017-11-13T05:47:33.115Z,61.00
2017-11-13T05:50:06.715Z,61.10
2017-11-13T05:52:40.431Z,61.30
2017-11-13T05:55:14.118Z,61.70
2017-11-13T05:57:47.780Z,61.10
2017-11-13T06:00:21.634Z,61.00
2017-11-13T06:02:55.320Z,61.00
2017-11-13T06:05:29.726Z,61.50
2017-11-13T06:08:03.636Z,61.50
2017-11-13T06:10:37.369Z,61.60
2017-11-13T06:13:10.922Z,61.40
2017-11-13T06:15:44.567Z,61.50
2017-11-13T06:18:18.035Z,61.40
2017-11-13T06:20:51.879Z,61.30
2017-11-13T06:23:25.376Z,61.10
2017-11-13T06:25:58.981Z,61.20
2017-11-13T06:28:32.774Z,61.00
2017-11-13T06:31:06.384Z,61.20
2017-11-13T06:33:40.908Z,61.00
2017-11-13T06:36:14.499Z,61.00
2017-11-13T06:38:47.999Z,61.00
2017-11-13T06:41:21.496Z,61.10
2017-11-13T06:43:54.943Z,61.00
2017-11-13T06:46:28.562Z,61.30
2017-11-13T06:49:02.047Z,61.20
2017-11-13T06:51:35.798Z,61.30
2017-11-13T06:54:09.401Z,61.20
2017-11-13T06:56:42.867Z,61.20
2017-11-13T06:59:16.599Z,61.10
2017-11-13T07:01:50.184Z,61.00
2017-11-13T07:04:25.004Z,61.00
2017-11-13T07:06:58.631Z,61.10
2017-11-13T07:09:32.104Z,60.90
2017-11-13T07:12:05.730Z,60.90
2017-11-13T07:14:40.026Z,61.30
2017-11-13T07:17:13.748Z,61.30
2017-11-13T07:19:47.360Z,61.20
2017-11-13T07:22:20.911Z,60.90
2017-11-13T07:24:54.664Z,61.10
2017-11-13T07:27:28.360Z,61.10
2017-11-13T07:30:01.909Z,61.20
2017-11-13T07:32:37.179Z,61.20
2017-11-13T07:35:10.759Z,61.10
2017-11-13T07:37:44.414Z,61.00
2017-11-13T07:40:18.704Z,61.30
2017-11-13T07:42:52.423Z,61.30
2017-11-13T07:45:25.871Z,61.50
2017-11-13T07:47:59.631Z,61.30
2017-11-13T07:50:33.336Z,61.40
2017-11-13T07:53:06.901Z,61.10
2017-11-13T07:55:40.852Z,61.30
2017-11-13T07:58:15.763Z,61.20
2017-11-13T08:00:49.471Z,61.20
2017-11-13T08:03:22.959Z,61.20
2017-11-13T08:05:56.643Z,61.30
2017-11-13T08:08:30.374Z,61.50
2017-11-13T08:11:03.983Z,61.30
2017-11-13T08:13:37.785Z,60.90
2017-11-13T08:16:11.596Z,60.90
2017-11-13T08:18:46.379Z,61.00
2017-11-13T08:21:20.120Z,60.60
2017-11-13T08:23:53.738Z,60.70
2017-11-13T08:26:27.535Z,60.80
2017-11-13T08:29:01.117Z,61.30
2017-11-13T08:31:34.732Z,60.70
2017-11-13T08:34:08.315Z,61.10
2017-11-13T08:36:42.751Z,60.60
2017-11-13T08:39:16.340Z,60.30
2017-11-13T08:41:49.955Z,60.40
2017-11-13T08:44:24.276Z,60.50
2017-11-13T08:46:57.976Z,60.50
2017-11-13T08:49:31.528Z,61.00
2017-11-13T08:52:04.976Z,61.10
2017-11-13T08:54:38.536Z,60.90
2017-11-13T08:57:12.081Z,59.70
2017-11-13T08:59:46.390Z,59.70
2017-11-13T09:02:20.113Z,59.60
2017-11-13T09:04:53.716Z,59.50
2017-11-13T09:07:27.436Z,59.50
2017-11-13T09:10:01.104Z,59.80
2017-11-13T09:12:34.696Z,59.80
2017-11-13T09:15:08.363Z,58.80
2017-11-13T09:17:42.002Z,59.20
2017-11-13T09:20:15.603Z,58.90
2017-11-13T09:22:49.187Z,58.70
2017-11-13T09:25:23.409Z,58.80
2017-11-13T09:27:57.128Z,58.80
2017-11-13T09:30:30.827Z,58.90
2017-11-13T09:33:04.432Z,58.80
2017-11-13T09:35:38.123Z,58.70
2017-11-13T09:38:11.703Z,58.20
2017-11-13T09:40:45.538Z,58.50
2017-11-13T09:43:19.144Z,58.50
2017-11-13T09:45:52.684Z,58.70
2017-11-13T09:48:26.553Z,58.60
2017-11-13T09:51:00.054Z,58.50
2017-11-13T09:53:33.832Z,58.20
2017-11-13T09:56:07.561Z,58.30
2017-11-13T09:58:41.366Z,58.20
2017-11-13T10:01:14.962Z,58.40
2017-11-13T10:03:49.380Z,58.40
2017-11-13T10:06:23.089Z,58.40
2017-11-13T10:08:57.410Z,58.80
2017-11-13T10:11:31.424Z,59.20
2017-11-13T10:14:04.975Z,58.80
2017-11-13T10:16:38.471Z,58.80
2017-11-13T10:19:12.063Z,58.60
2017-11-13T10:21:45.814Z,58.80
2017-11-13T10:24:19.293Z,58.60
2017-11-13T10:26:52.924Z,58.40
2017-11-13T10:29:26.647Z,58.50
2017-11-13T10:32:00.299Z,58.40
2017-11-13T10:34:33.889Z,58.50
2017-11-13T10:37:07.479Z,58.40
2017-11-13T10:39:41.227Z,58.60
2017-11-13T10:42:15.033Z,59.00
2017-11-13T10:44:48.737Z,59.20
2017-11-13T10:47:22.346Z,58.90
2017-11-13T10:49:57.532Z,59.20
2017-11-13T10:52:31.123Z,59.00
2017-11-13T10:55:04.808Z,58.90
2017-11-13T10:57:38.463Z,58.80
2017-11-13T11:00:12.044Z,58.20
2017-11-13T11:02:45.635Z,58.00
2017-11-13T11:05:19.348Z,58.10
2017-11-13T11:07:52.939Z,57.90
2017-11-13T11:10:26.524Z,57.70
2017-11-13T11:13:00.147Z,58.00
2017-11-13T11:15:35.258Z,57.70
2017-11-13T11:18:14.548Z,57.70
2017-11-13T11:20:59.896Z,57.80
2017-11-13T11:23:34.367Z,57.80
2017-11-13T11:26:23.812Z,57.60
2017-11-13T11:29:12.248Z,57.70
2017-11-13T11:32:01.767Z,57.90
2017-11-13T11:37:45.592Z,57.80
2017-11-13T11:40:19.216Z,57.70
2017-11-13T11:42:53.368Z,57.60
2017-11-13T11:45:27.419Z,57.70
2017-11-13T11:48:00.952Z,57.60
2017-11-13T11:50:34.557Z,57.40
2017-11-13T11:53:08.191Z,57.60
2017-11-13T11:55:50.113Z,57.10
2017-11-13T11:58:23.691Z,56.90
2017-11-13T12:00:57.283Z,57.10
2017-11-13T12:03:30.939Z,56.90
2017-11-13T12:06:04.448Z,56.70
2017-11-13T12:08:38.915Z,56.10
2017-11-13T12:11:12.551Z,56.10
2017-11-13T12:13:46.159Z,56.60
2017-11-13T12:16:20.683Z,57.10
2017-11-13T12:18:54.347Z,57.00
2017-11-13T12:21:29.423Z,56.60
2017-11-13T12:24:03.025Z,56.60
2017-11-13T12:26:36.576Z,56.20
2017-11-13T12:29:10.812Z,56.70
2017-11-13T12:31:44.380Z,56.60
2017-11-13T12:34:18.836Z,56.70
2017-11-13T12:36:52.963Z,56.60
2017-11-13T12:39:26.548Z,56.60
2017-11-13T12:42:00.168Z,56.10
2017-11-13T12:44:33.679Z,55.60
2017-11-13T12:47:07.472Z,55.70
2017-11-13T12:49:41.036Z,55.40
2017-11-13T12:52:14.555Z,55.00
2017-11-13T12:54:48.149Z,55.10
2017-11-13T12:57:21.740Z,55.30
2017-11-13T12:59:55.281Z,55.30
2017-11-13T13:02:29.768Z,55.20
2017-11-13T13:05:03.367Z,55.20
2017-11-13T13:07:37.095Z,55.00
2017-11-13T13:10:10.565Z,55.10
2017-11-13T13:12:45.104Z,55.90
2017-11-13T13:15:18.724Z,55.90
2017-11-13T13:17:52.221Z,55.00
2017-11-13T13:20:25.883Z,55.20
2017-11-13T13:22:59.419Z,55.40
2017-11-13T13:25:33.119Z,55.30
2017-11-13T13:28:06.679Z,54.90
2017-11-13T13:30:40.328Z,55.10
2017-11-13T13:33:14.331Z,54.70
2017-11-13T13:35:47.768Z,54.80
2017-11-13T13:38:21.430Z,54.50
2017-11-13T13:40:55.747Z,54.20
2017-11-13T13:43:30.175Z,54.30
2017-11-13T13:46:03.878Z,54.30
2017-11-13T13:48:37.579Z,54.60
2017-11-13T13:51:11.857Z,54.40
2017-11-13T13:53:45.507Z,54.40
2017-11-13T13:56:19.314Z,54.80
2017-11-13T13:58:53.004Z,54.50
2017-11-13T14:01:26.503Z,53.80
2017-11-13T14:04:00.796Z,53.60
2017-11-13T14:06:35.004Z,54.00
2017-11-13T14:09:08.617Z,54.00
2017-11-13T14:11:42.324Z,54.20
2017-11-13T14:14:15.844Z,54.50
2017-11-13T14:16:49.471Z,54.40
2017-11-13T14:19:23.118Z,53.90
2017-11-13T14:21:56.703Z,53.70
2017-11-13T14:24:30.232Z,54.50
2017-11-13T14:27:03.740Z,54.50
2017-11-13T14:29:37.288Z,53.80
2017-11-13T14:32:10.932Z,54.10
2017-11-13T14:34:44.594Z,54.10
2017-11-13T14:37:18.108Z,53.70
2017-11-13T14:39:51.628Z,53.50
2017-11-13T14:42:25.140Z,53.80
2017-11-13T14:44:58.783Z,53.60
2017-11-13T14:47:32.317Z,53.50
2017-11-13T14:50:07.492Z,52.80
2017-11-13T14:52:41.764Z,53.20
2017-11-13T14:55:15.303Z,53.20
2017-11-13T14:57:48.877Z,52.90
2017-11-13T15:00:23.292Z,53.00
2017-11-13T15:02:57.502Z,53.20
2017-11-13T15:05:31.844Z,54.00
2017-11-13T15:08:05.547Z,53.90
2017-11-13T15:10:39.100Z,54.00
2017-11-13T15:13:13.191Z,54.00
2017-11-13T15:15:47.672Z,54.90
2017-11-13T15:18:21.232Z,54.90
2017-11-13T15:20:54.763Z,54.40
2017-11-13T15:23:28.394Z,54.30
2017-11-13T15:26:02.908Z,54.30
2017-11-13T15:28:36.708Z,54.20
2017-11-13T15:31:10.311Z,54.20
2017-11-13T15:33:43.885Z,54.40
2017-11-13T15:36:17.535Z,54.00
2017-11-13T15:38:51.323Z,54.00
2017-11-13T15:41:25.124Z,54.10
2017-11-13T15:43:58.696Z,54.10
2017-11-13T15:46:33.048Z,55.40
2017-11-13T15:49:06.721Z,55.70
2017-11-13T15:51:40.320Z,55.80
2017-11-13T15:54:13.948Z,55.60
2017-11-13T15:56:47.623Z,55.70
2017-11-13T15:59:21.251Z,55.90
2017-11-13T16:01:54.812Z,55.90
2017-11-13T16:04:28.356Z,55.70
2017-11-13T16:07:01.960Z,55.80
2017-11-13T16:09:35.562Z,55.80
2017-11-13T16:12:09.242Z,55.80
2017-11-13T16:14:44.463Z,56.20
2017-11-13T16:17:17.998Z,56.20
2017-11-13T16:19:51.435Z,56.30
2017-11-13T16:22:25.087Z,56.40
2017-11-13T16:24:58.795Z,56.50
2017-11-13T16:27:32.394Z,56.50
2017-11-13T16:30:05.927Z,56.50
2017-11-13T16:32:39.456Z,57.00
2017-11-13T16:35:13.055Z,57.40
2017-11-13T16:37:46.799Z,57.50
2017-11-13T16:40:20.272Z,57.30
2017-11-13T16:42:53.886Z,57.00
2017-11-13T16:45:28.218Z,57.30
2017-11-13T16:48:01.901Z,57.30
2017-11-13T16:50:35.519Z,57.20
2017-11-13T16:53:09.434Z,57.20
2017-11-13T16:55:43.026Z,57.30
2017-11-13T16:58:16.636Z,57.30
2017-11-13T17:00:50.906Z,57.20
2017-11-13T17:03:24.539Z,57.20
2017-11-13T17:05:57.976Z,57.20
2017-11-13T17:08:31.546Z,57.20
2017-11-13T17:11:05.151Z,57.30
2017-11-13T17:13:39.544Z,57.40
2017-11-13T17:16:13.271Z,57.40
2017-11-13T17:18:47.587Z,57.40
2017-11-13T17:21:21.191Z,57.40
2017-11-13T17:23:54.862Z,57.50
2017-11-13T17:26:28.599Z,57.80
2017-11-13T17:29:02.347Z,57.60
2017-11-13T17:31:36.102Z,57.50
2017-11-13T17:34:09.811Z,57.70
2017-11-13T17:36:43.310Z,57.70
2017-11-13T17:39:16.891Z,57.70
2017-11-13T17:41:51.131Z,57.80
2017-11-13T17:44:24.872Z,57.80
2017-11-13T17:46:58.734Z,57.80
2017-11-13T17:49:32.339Z,57.90
2017-11-13T17:52:06.215Z,58.00
2017-11-13T17:54:40.422Z,58.00
2017-11-13T17:57:14.124Z,57.90
2017-11-13T17:59:47.758Z,57.80
2017-11-13T18:02:21.330Z,57.90
2017-11-13T18:04:55.064Z,57.90
2017-11-13T18:07:28.563Z,57.70
2017-11-13T18:10:02.060Z,57.90
2017-11-13T18:12:35.660Z,58.10
2017-11-13T18:15:10.051Z,57.90
2017-11-13T18:17:43.687Z,57.90
2017-11-13T18:20:17.248Z,58.00
2017-11-13T18:22:50.751Z,57.90
2017-11-13T18:25:24.276Z,57.80
2017-11-13T18:27:57.781Z,58.00
2017-11-13T18:30:31.437Z,58.00
2017-11-13T18:33:05.094Z,58.00
2017-11-13T18:35:38.538Z,58.10
2017-11-13T18:38:12.766Z,58.00
2017-11-13T18:40:46.276Z,58.10
2017-11-13T18:43:20.667Z,58.40
2017-11-13T18:45:54.275Z,58.00
2017-11-13T18:48:27.729Z,58.10
2017-11-13T18:51:02.195Z,58.10
2017-11-13T18:53:35.839Z,58.00
2017-11-13T18:56:09.423Z,58.20
2017-11-13T18:58:42.880Z,58.30
2017-11-13T19:01:16.430Z,58.10
2017-11-13T19:03:49.921Z,58.10
2017-11-13T19:06:24.164Z,58.00
2017-11-13T19:08:58.431Z,58.00
2017-11-13T19:11:32.064Z,58.00
2017-11-13T19:14:05.598Z,58.00
2017-11-13T19:16:39.043Z,58.20
2017-11-13T19:19:13.243Z,58.80
2017-11-13T19:21:46.785Z,58.80
2017-11-13T19:24:20.390Z,58.90
2017-11-13T19:26:53.835Z,59.20
2017-11-13T19:29:27.267Z,59.20
2017-11-13T19:32:00.739Z,59.20
2017-11-13T19:34:34.257Z,59.50
2017-11-13T19:37:07.725Z,59.60
2017-11-13T19:39:41.355Z,59.50
2017-11-13T19:42:14.842Z,59.60
2017-11-13T19:44:49.060Z,59.40
2017-11-13T19:47:22.651Z,59.40
2017-11-13T19:49:56.860Z,59.70
2017-11-13T19:52:30.490Z,59.60
2017-11-13T19:55:03.927Z,59.70
2017-11-13T19:57:37.442Z,59.60
2017-11-13T20:00:10.879Z,59.40
2017-11-13T20:02:45.226Z,59.70
2017-11-13T20:05:18.666Z,59.70
2017-11-13T20:07:53.104Z,59.60
2017-11-13T20:10:27.318Z,59.80
2017-11-13T20:13:00.849Z,59.80
2017-11-13T20:15:34.387Z,59.80
2017-11-13T20:18:07.899Z,59.90
2017-11-13T20:20:41.549Z,59.80
2017-11-13T20:23:14.979Z,59.80
2017-11-13T20:25:48.449Z,60.00
2017-11-13T20:28:22.734Z,59.70
2017-11-13T20:30:56.332Z,59.70
2017-11-13T20:33:29.924Z,59.70
2017-11-13T20:36:03.461Z,59.70
2017-11-13T20:38:37.052Z,59.70
2017-11-13T20:41:10.691Z,59.70
2017-11-13T20:43:44.212Z,59.90
2017-11-13T20:46:17.665Z,59.90
2017-11-13T20:48:51.287Z,59.90
2017-11-13T20:51:24.730Z,59.80
2017-11-13T20:53:58.934Z,59.90
2017-11-13T20:56:32.454Z,59.90
2017-11-13T20:59:06.752Z,59.80
2017-11-13T21:01:40.311Z,59.80
2017-11-13T21:04:13.968Z,59.90
2017-11-13T21:06:48.358Z,59.90
2017-11-13T21:09:21.916Z,60.00
2017-11-13T21:11:55.354Z,60.00
2017-11-13T21:14:28.882Z,59.90
2017-11-13T21:17:02.383Z,59.90
2017-11-13T21:19:36.036Z,59.90
2017-11-13T21:22:09.678Z,59.90
2017-11-13T21:24:43.362Z,60.00
2017-11-13T21:27:16.799Z,60.10
2017-11-13T21:29:50.350Z,60.00
2017-11-13T21:32:23.905Z,60.00
2017-11-13T21:34:57.359Z,59.90
2017-11-13T21:37:30.863Z,60.00
2017-11-13T21:40:04.386Z,59.90
2017-11-13T21:42:37.906Z,59.90
2017-11-13T21:45:11.516Z,60.00
2017-11-13T21:47:44.962Z,60.00
2017-11-13T21:50:18.480Z,60.10
2017-11-13T21:52:51.983Z,59.90
2017-11-13T21:55:26.279Z,60.00
2017-11-13T21:58:00.488Z,60.00
2017-11-13T22:00:34.034Z,59.90
2017-11-13T22:03:07.541Z,59.90
2017-11-13T22:05:41.076Z,59.90
2017-11-13T22:08:14.578Z,59.70
2017-11-13T22:10:48.116Z,59.80
2017-11-13T22:13:22.404Z,59.80
2017-11-13T22:15:55.995Z,59.80
2017-11-13T22:18:30.415Z,59.90
2017-11-13T22:21:03.948Z,59.80
2017-11-13T22:23:38.243Z,60.00
2017-11-13T22:26:12.089Z,60.00
2017-11-13T22:28:45.659Z,60.00
2017-11-13T22:31:19.991Z,59.90
2017-11-13T22:33:53.799Z,59.90
2017-11-13T22:36:27.512Z,60.00
2017-11-13T22:39:00.948Z,59.90
2017-11-13T22:41:34.606Z,59.70
2017-11-13T22:44:08.544Z,59.80
2017-11-13T22:46:42.275Z,59.60
2017-11-13T22:49:15.892Z,59.80
2017-11-13T22:51:50.035Z,59.80
2017-11-13T22:54:23.636Z,59.50
2017-11-13T22:56:57.439Z,59.40
2017-11-13T22:59:31.655Z,59.40
2017-11-13T23:02:05.251Z,59.30
2017-11-13T23:04:38.802Z,59.10
2017-11-13T23:07:13.175Z,59.20
2017-11-13T23:09:47.459Z,59.60
2017-11-13T23:12:21.190Z,59.50
2017-11-13T23:14:54.900Z,59.40
2017-11-13T23:17:28.594Z,58.90
2017-11-13T23:20:02.532Z,59.30
2017-11-13T23:22:36.313Z,59.50
2017-11-13T23:25:10.119Z,59.20
2017-11-13T23:27:43.699Z,58.90
2017-11-13T23:30:17.314Z,58.80
2017-11-13T23:32:51.128Z,58.90
2017-11-13T23:35:25.618Z,58.80
2017-11-13T23:37:59.323Z,58.80
2017-11-13T23:40:32.831Z,59.20
2017-11-13T23:43:06.455Z,58.90
2017-11-13T23:45:40.011Z,58.50
2017-11-13T23:48:14.452Z,58.90
2017-11-13T23:50:48.066Z,58.80
2017-11-13T23:53:22.386Z,58.90
2017-11-13T23:55:55.991Z,58.80
2017-11-13T23:58:30.416Z,58.90
